sensor_id;sensor_type;location;lat;lon;timestamp;temperature;humidity
33508;DHT22;25568;37.410;-122.096;2024-02-04T00:00:36;18.30;91.50
33508;DHT22;25568;37.410;-122.096;2024-02-04T00:03:07;18.30;91.50
33508;DHT22;25568;37.410;-122.096;2024-02-04T00:05:37;18.30;91.80
33508;DHT22;25568;37.410;-122.096;2024-02-04T00:08:21;18.30;91.50
33508;DHT22;25568;37.410;-122.096;2024-02-04T00:10:50;18.30;91.40
33508;DHT22;25568;37.410;-122.096;2024-02-04T00:13:20;18.30;91.40
33508;DHT22;25568;37.410;-122.096;2024-02-04T00:15:49;18.30;91.40
33508;DHT22;25568;37.410;-122.096;2024-02-04T00:18:24;18.30;91.30
33508;DHT22;25568;37.410;-122.096;2024-02-04T00:20:54;18.30;91.40
33508;DHT22;25568;37.410;-122.096;2024-02-04T00:23:23;18.30;91.30
33508;DHT22;25568;37.410;-122.096;2024-02-04T00:25:52;18.30;91.30
33508;DHT22;25568;37.410;-122.096;2024-02-04T00:28:21;18.30;91.30
33508;DHT22;25568;37.410;-122.096;2024-02-04T00:30:51;18.30;91.30
33508;DHT22;25568;37.410;-122.096;2024-02-04T00:33:24;18.30;91.20
33508;DHT22;25568;37.410;-122.096;2024-02-04T00:35:53;18.30;91.20
33508;DHT22;25568;37.410;-122.096;2024-02-04T00:38:26;18.30;91.20
33508;DHT22;25568;37.410;-122.096;2024-02-04T00:40:57;18.30;91.10
33508;DHT22;25568;37.410;-122.096;2024-02-04T00:43:26;18.30;91.10
33508;DHT22;25568;37.410;-122.096;2024-02-04T00:45:56;18.30;90.90
33508;DHT22;25568;37.410;-122.096;2024-02-04T00:48:28;18.30;91.00
33508;DHT22;25568;37.410;-122.096;2024-02-04T00:50:59;18.30;91.20
33508;DHT22;25568;37.410;-122.096;2024-02-04T00:53:29;18.30;91.10
33508;DHT22;25568;37.410;-122.096;2024-02-04T00:56:00;18.30;91.00
33508;DHT22;25568;37.410;-122.096;2024-02-04T00:58:31;18.30;90.90
33508;DHT22;25568;37.410;-122.096;2024-02-04T01:01:01;18.40;90.90
33508;DHT22;25568;37.410;-122.096;2024-02-04T01:03:36;18.30;90.80
33508;DHT22;25568;37.410;-122.096;2024-02-04T01:06:09;18.40;90.80
33508;DHT22;25568;37.410;-122.096;2024-02-04T01:08:38;18.30;90.70
33508;DHT22;25568;37.410;-122.096;2024-02-04T01:11:07;18.30;90.70
33508;DHT22;25568;37.410;-122.096;2024-02-04T01:13:38;18.30;90.70
33508;DHT22;25568;37.410;-122.096;2024-02-04T01:16:07;18.30;90.70
33508;DHT22;25568;37.410;-122.096;2024-02-04T01:18:39;18.30;90.60
33508;DHT22;25568;37.410;-122.096;2024-02-04T01:21:08;18.30;90.60
33508;DHT22;25568;37.410;-122.096;2024-02-04T01:23:37;18.30;90.60
33508;DHT22;25568;37.410;-122.096;2024-02-04T01:26:07;18.30;90.60
33508;DHT22;25568;37.410;-122.096;2024-02-04T01:28:37;18.30;90.60
33508;DHT22;25568;37.410;-122.096;2024-02-04T01:31:07;18.30;90.60
33508;DHT22;25568;37.410;-122.096;2024-02-04T01:33:39;18.30;90.60
33508;DHT22;25568;37.410;-122.096;2024-02-04T01:36:08;18.30;90.60
33508;DHT22;25568;37.410;-122.096;2024-02-04T01:38:37;18.30;90.60
33508;DHT22;25568;37.410;-122.096;2024-02-04T01:41:07;18.30;90.60
33508;DHT22;25568;37.410;-122.096;2024-02-04T01:43:36;18.30;90.50
33508;DHT22;25568;37.410;-122.096;2024-02-04T01:46:05;18.30;90.50
33508;DHT22;25568;37.410;-122.096;2024-02-04T01:48:38;18.30;90.50
33508;DHT22;25568;37.410;-122.096;2024-02-04T01:51:09;18.30;90.50
33508;DHT22;25568;37.410;-122.096;2024-02-04T01:53:39;18.30;90.40
33508;DHT22;25568;37.410;-122.096;2024-02-04T01:56:11;18.30;90.40
33508;DHT22;25568;37.410;-122.096;2024-02-04T01:58:43;18.30;90.40
33508;DHT22;25568;37.410;-122.096;2024-02-04T02:01:13;18.30;90.40
33508;DHT22;25568;37.410;-122.096;2024-02-04T02:03:48;18.30;90.40
33508;DHT22;25568;37.410;-122.096;2024-02-04T02:06:18;18.30;90.40
33508;DHT22;25568;37.410;-122.096;2024-02-04T02:08:47;18.30;90.40
33508;DHT22;25568;37.410;-122.096;2024-02-04T02:11:25;18.30;90.30
33508;DHT22;25568;37.410;-122.096;2024-02-04T02:14:00;18.30;90.30
33508;DHT22;25568;37.410;-122.096;2024-02-04T02:16:32;18.30;90.40
33508;DHT22;25568;37.410;-122.096;2024-02-04T02:19:15;18.30;90.40
33508;DHT22;25568;37.410;-122.096;2024-02-04T02:21:52;18.30;90.40
33508;DHT22;25568;37.410;-122.096;2024-02-04T02:24:41;18.30;90.40
33508;DHT22;25568;37.410;-122.096;2024-02-04T02:27:14;18.30;90.40
33508;DHT22;25568;37.410;-122.096;2024-02-04T02:29:44;18.30;90.40
33508;DHT22;25568;37.410;-122.096;2024-02-04T02:32:15;18.30;90.30
33508;DHT22;25568;37.410;-122.096;2024-02-04T02:34:45;18.30;90.30
33508;DHT22;25568;37.410;-122.096;2024-02-04T02:37:29;18.30;90.70
33508;DHT22;25568;37.410;-122.096;2024-02-04T02:40:08;18.30;90.30
33508;DHT22;25568;37.410;-122.096;2024-02-04T02:42:43;18.30;90.20
33508;DHT22;25568;37.410;-122.096;2024-02-04T02:45:16;18.40;90.10
33508;DHT22;25568;37.410;-122.096;2024-02-04T02:47:46;18.40;90.10
33508;DHT22;25568;37.410;-122.096;2024-02-04T02:50:17;18.30;90.00
33508;DHT22;25568;37.410;-122.096;2024-02-04T02:52:47;18.30;90.00
33508;DHT22;25568;37.410;-122.096;2024-02-04T02:55:19;18.30;90.00
33508;DHT22;25568;37.410;-122.096;2024-02-04T02:57:50;18.30;90.00
33508;DHT22;25568;37.410;-122.096;2024-02-04T03:00:20;18.30;90.20
33508;DHT22;25568;37.410;-122.096;2024-02-04T03:02:50;18.40;90.00
33508;DHT22;25568;37.410;-122.096;2024-02-04T03:05:19;18.40;90.00
33508;DHT22;25568;37.410;-122.096;2024-02-04T03:07:48;18.40;90.00
33508;DHT22;25568;37.410;-122.096;2024-02-04T03:10:19;18.40;90.00
33508;DHT22;25568;37.410;-122.096;2024-02-04T03:12:49;18.40;90.00
33508;DHT22;25568;37.410;-122.096;2024-02-04T03:15:19;18.40;90.00
33508;DHT22;25568;37.410;-122.096;2024-02-04T03:17:48;18.40;90.00
33508;DHT22;25568;37.410;-122.096;2024-02-04T03:20:18;18.40;90.00
33508;DHT22;25568;37.410;-122.096;2024-02-04T03:22:48;18.40;90.00
33508;DHT22;25568;37.410;-122.096;2024-02-04T03:25:19;18.40;90.00
33508;DHT22;25568;37.410;-122.096;2024-02-04T03:27:50;18.40;90.10
33508;DHT22;25568;37.410;-122.096;2024-02-04T03:30:19;18.40;90.20
33508;DHT22;25568;37.410;-122.096;2024-02-04T03:32:48;18.40;90.20
33508;DHT22;25568;37.410;-122.096;2024-02-04T03:35:18;18.40;90.30
33508;DHT22;25568;37.410;-122.096;2024-02-04T03:37:47;18.40;90.40
33508;DHT22;25568;37.410;-122.096;2024-02-04T03:40:19;18.50;90.50
33508;DHT22;25568;37.410;-122.096;2024-02-04T03:42:51;18.50;90.60
33508;DHT22;25568;37.410;-122.096;2024-02-04T03:45:21;18.50;90.60
33508;DHT22;25568;37.410;-122.096;2024-02-04T03:47:52;18.50;90.60
33508;DHT22;25568;37.410;-122.096;2024-02-04T03:50:21;18.50;90.60
33508;DHT22;25568;37.410;-122.096;2024-02-04T03:52:51;18.50;90.60
33508;DHT22;25568;37.410;-122.096;2024-02-04T03:55:26;18.50;90.60
33508;DHT22;25568;37.410;-122.096;2024-02-04T03:57:55;18.50;90.60
33508;DHT22;25568;37.410;-122.096;2024-02-04T04:00:25;18.50;90.60
33508;DHT22;25568;37.410;-122.096;2024-02-04T04:02:56;18.50;90.60
33508;DHT22;25568;37.410;-122.096;2024-02-04T04:05:25;18.50;90.60
33508;DHT22;25568;37.410;-122.096;2024-02-04T04:07:55;18.50;90.60
33508;DHT22;25568;37.410;-122.096;2024-02-04T04:10:25;18.50;90.60
33508;DHT22;25568;37.410;-122.096;2024-02-04T04:12:55;18.50;90.60
33508;DHT22;25568;37.410;-122.096;2024-02-04T04:15:27;18.50;90.60
33508;DHT22;25568;37.410;-122.096;2024-02-04T04:17:57;18.50;90.60
33508;DHT22;25568;37.410;-122.096;2024-02-04T04:20:26;18.50;90.60
33508;DHT22;25568;37.410;-122.096;2024-02-04T04:22:55;18.50;90.60
33508;DHT22;25568;37.410;-122.096;2024-02-04T04:25:28;18.50;90.60
33508;DHT22;25568;37.410;-122.096;2024-02-04T04:27:57;18.40;90.50
33508;DHT22;25568;37.410;-122.096;2024-02-04T04:30:27;18.50;90.40
33508;DHT22;25568;37.410;-122.096;2024-02-04T04:32:57;18.50;90.40
33508;DHT22;25568;37.410;-122.096;2024-02-04T04:35:26;18.40;90.30
33508;DHT22;25568;37.410;-122.096;2024-02-04T04:37:56;18.50;90.30
33508;DHT22;25568;37.410;-122.096;2024-02-04T04:40:27;18.50;90.40
33508;DHT22;25568;37.410;-122.096;2024-02-04T04:42:56;18.50;90.40
33508;DHT22;25568;37.410;-122.096;2024-02-04T04:45:27;18.40;90.30
33508;DHT22;25568;37.410;-122.096;2024-02-04T04:47:56;18.40;90.20
33508;DHT22;25568;37.410;-122.096;2024-02-04T04:50:26;18.40;90.20
33508;DHT22;25568;37.410;-122.096;2024-02-04T04:52:55;18.40;90.20
33508;DHT22;25568;37.410;-122.096;2024-02-04T04:55:26;18.40;90.60
33508;DHT22;25568;37.410;-122.096;2024-02-04T04:57:55;18.40;90.20
33508;DHT22;25568;37.410;-122.096;2024-02-04T05:00:25;18.40;90.20
33508;DHT22;25568;37.410;-122.096;2024-02-04T05:02:54;18.40;90.20
33508;DHT22;25568;37.410;-122.096;2024-02-04T05:05:24;18.40;90.30
33508;DHT22;25568;37.410;-122.096;2024-02-04T05:07:55;18.40;90.40
33508;DHT22;25568;37.410;-122.096;2024-02-04T05:10:26;18.40;90.40
33508;DHT22;25568;37.410;-122.096;2024-02-04T05:12:55;18.40;90.40
33508;DHT22;25568;37.410;-122.096;2024-02-04T05:15:24;18.40;90.40
33508;DHT22;25568;37.410;-122.096;2024-02-04T05:17:54;18.40;90.40
33508;DHT22;25568;37.410;-122.096;2024-02-04T05:20:24;18.40;90.40
33508;DHT22;25568;37.410;-122.096;2024-02-04T05:22:53;18.40;90.40
33508;DHT22;25568;37.410;-122.096;2024-02-04T05:25:25;18.40;90.30
33508;DHT22;25568;37.410;-122.096;2024-02-04T05:27:55;18.40;90.30
33508;DHT22;25568;37.410;-122.096;2024-02-04T05:30:24;18.40;90.30
33508;DHT22;25568;37.410;-122.096;2024-02-04T05:32:54;18.40;90.30
33508;DHT22;25568;37.410;-122.096;2024-02-04T05:35:24;18.40;90.30
33508;DHT22;25568;37.410;-122.096;2024-02-04T05:37:52;18.40;90.30
33508;DHT22;25568;37.410;-122.096;2024-02-04T05:40:21;18.40;90.20
33508;DHT22;25568;37.410;-122.096;2024-02-04T05:42:52;18.40;90.20
33508;DHT22;25568;37.410;-122.096;2024-02-04T05:45:22;18.40;90.20
33508;DHT22;25568;37.410;-122.096;2024-02-04T05:47:51;18.40;90.20
33508;DHT22;25568;37.410;-122.096;2024-02-04T05:50:20;18.40;90.20
33508;DHT22;25568;37.410;-122.096;2024-02-04T05:52:49;18.40;90.20
33508;DHT22;25568;37.410;-122.096;2024-02-04T05:55:18;18.40;90.20
33508;DHT22;25568;37.410;-122.096;2024-02-04T05:57:47;18.40;90.20
33508;DHT22;25568;37.410;-122.096;2024-02-04T06:00:20;18.40;90.20
33508;DHT22;25568;37.410;-122.096;2024-02-04T06:02:49;18.40;90.30
33508;DHT22;25568;37.410;-122.096;2024-02-04T06:05:19;18.40;90.30
33508;DHT22;25568;37.410;-122.096;2024-02-04T06:07:49;18.40;90.30
33508;DHT22;25568;37.410;-122.096;2024-02-04T06:10:18;18.40;90.70
33508;DHT22;25568;37.410;-122.096;2024-02-04T06:12:48;18.40;90.40
33508;DHT22;25568;37.410;-122.096;2024-02-04T06:15:20;18.30;90.40
33508;DHT22;25568;37.410;-122.096;2024-02-04T06:17:49;18.40;90.40
33508;DHT22;25568;37.410;-122.096;2024-02-04T06:20:19;18.30;90.40
33508;DHT22;25568;37.410;-122.096;2024-02-04T06:22:48;18.40;90.40
33508;DHT22;25568;37.410;-122.096;2024-02-04T06:25:17;18.30;90.40
33508;DHT22;25568;37.410;-122.096;2024-02-04T06:27:47;18.30;90.50
33508;DHT22;25568;37.410;-122.096;2024-02-04T06:30:19;18.30;90.40
33508;DHT22;25568;37.410;-122.096;2024-02-04T06:32:49;18.30;90.50
33508;DHT22;25568;37.410;-122.096;2024-02-04T06:35:18;18.30;90.50
33508;DHT22;25568;37.410;-122.096;2024-02-04T06:37:48;18.30;90.50
33508;DHT22;25568;37.410;-122.096;2024-02-04T06:40:17;18.30;90.50
33508;DHT22;25568;37.410;-122.096;2024-02-04T06:42:46;18.30;90.50
33508;DHT22;25568;37.410;-122.096;2024-02-04T06:48:05;18.30;90.50
33508;DHT22;25568;37.410;-122.096;2024-02-04T06:50:34;18.30;90.80
33508;DHT22;25568;37.410;-122.096;2024-02-04T06:53:03;18.30;90.40
33508;DHT22;25568;37.410;-122.096;2024-02-04T06:55:32;18.30;90.50
33508;DHT22;25568;37.410;-122.096;2024-02-04T06:58:02;18.30;90.50
33508;DHT22;25568;37.410;-122.096;2024-02-04T07:00:30;18.30;90.50
33508;DHT22;25568;37.410;-122.096;2024-02-04T07:03:02;18.30;90.60
33508;DHT22;25568;37.410;-122.096;2024-02-04T07:05:31;18.30;90.70
33508;DHT22;25568;37.410;-122.096;2024-02-04T07:08:01;18.30;90.80
33508;DHT22;25568;37.410;-122.096;2024-02-04T07:10:30;18.30;90.80
33508;DHT22;25568;37.410;-122.096;2024-02-04T07:13:00;18.30;90.90
33508;DHT22;25568;37.410;-122.096;2024-02-04T07:15:29;18.30;91.00
33508;DHT22;25568;37.410;-122.096;2024-02-04T07:17:58;18.30;91.00
33508;DHT22;25568;37.410;-122.096;2024-02-04T07:20:29;18.30;91.10
33508;DHT22;25568;37.410;-122.096;2024-02-04T07:22:59;18.30;91.10
33508;DHT22;25568;37.410;-122.096;2024-02-04T07:25:29;18.30;91.20
33508;DHT22;25568;37.410;-122.096;2024-02-04T07:27:58;18.30;91.20
33508;DHT22;25568;37.410;-122.096;2024-02-04T07:30:28;18.30;91.30
33508;DHT22;25568;37.410;-122.096;2024-02-04T07:32:57;18.30;91.30
33508;DHT22;25568;37.410;-122.096;2024-02-04T07:35:29;18.30;91.30
33508;DHT22;25568;37.410;-122.096;2024-02-04T07:37:58;18.30;91.40
33508;DHT22;25568;37.410;-122.096;2024-02-04T07:40:28;18.30;91.50
33508;DHT22;25568;37.410;-122.096;2024-02-04T07:42:58;18.30;91.50
33508;DHT22;25568;37.410;-122.096;2024-02-04T07:45:28;18.30;91.50
33508;DHT22;25568;37.410;-122.096;2024-02-04T07:47:57;18.30;91.50
33508;DHT22;25568;37.410;-122.096;2024-02-04T07:50:29;18.30;91.60
33508;DHT22;25568;37.410;-122.096;2024-02-04T07:52:58;18.30;91.60
33508;DHT22;25568;37.410;-122.096;2024-02-04T07:55:28;18.30;91.70
33508;DHT22;25568;37.410;-122.096;2024-02-04T07:57:57;18.30;91.70
33508;DHT22;25568;37.410;-122.096;2024-02-04T08:00:27;18.30;91.80
33508;DHT22;25568;37.410;-122.096;2024-02-04T08:02:57;18.30;92.20
33508;DHT22;25568;37.410;-122.096;2024-02-04T08:05:28;18.30;91.80
33508;DHT22;25568;37.410;-122.096;2024-02-04T08:07:58;18.30;91.90
33508;DHT22;25568;37.410;-122.096;2024-02-04T08:10:27;18.30;91.90
33508;DHT22;25568;37.410;-122.096;2024-02-04T08:12:56;18.30;91.90
33508;DHT22;25568;37.410;-122.096;2024-02-04T08:15:25;18.20;91.90
33508;DHT22;25568;37.410;-122.096;2024-02-04T08:17:54;18.30;92.00
33508;DHT22;25568;37.410;-122.096;2024-02-04T08:20:24;18.30;92.00
33508;DHT22;25568;37.410;-122.096;2024-02-04T08:22:56;18.20;92.20
33508;DHT22;25568;37.410;-122.096;2024-02-04T08:25:26;18.30;92.20
33508;DHT22;25568;37.410;-122.096;2024-02-04T08:27:56;18.20;92.30
33508;DHT22;25568;37.410;-122.096;2024-02-04T08:30:25;18.20;92.20
33508;DHT22;25568;37.410;-122.096;2024-02-04T08:32:54;18.20;92.30
33508;DHT22;25568;37.410;-122.096;2024-02-04T08:35:23;18.30;92.30
33508;DHT22;25568;37.410;-122.096;2024-02-04T08:37:52;18.20;92.30
33508;DHT22;25568;37.410;-122.096;2024-02-04T08:40:22;18.30;92.30
33508;DHT22;25568;37.410;-122.096;2024-02-04T08:42:52;18.20;92.30
33508;DHT22;25568;37.410;-122.096;2024-02-04T08:45:20;18.30;92.30
33508;DHT22;25568;37.410;-122.096;2024-02-04T08:47:49;18.20;92.40
33508;DHT22;25568;37.410;-122.096;2024-02-04T08:50:19;18.20;92.40
33508;DHT22;25568;37.410;-122.096;2024-02-04T08:52:48;18.30;92.40
33508;DHT22;25568;37.410;-122.096;2024-02-04T08:55:18;18.20;92.40
33508;DHT22;25568;37.410;-122.096;2024-02-04T08:57:50;18.20;92.40
33508;DHT22;25568;37.410;-122.096;2024-02-04T09:00:20;18.20;92.50
33508;DHT22;25568;37.410;-122.096;2024-02-04T09:02:50;18.20;92.50
33508;DHT22;25568;37.410;-122.096;2024-02-04T09:05:20;18.20;92.50
33508;DHT22;25568;37.410;-122.096;2024-02-04T09:07:49;18.20;92.50
33508;DHT22;25568;37.410;-122.096;2024-02-04T09:10:18;18.20;92.50
33508;DHT22;25568;37.410;-122.096;2024-02-04T09:12:49;18.20;92.50
33508;DHT22;25568;37.410;-122.096;2024-02-04T09:15:19;18.20;92.60
33508;DHT22;25568;37.410;-122.096;2024-02-04T09:17:49;18.20;92.50
33508;DHT22;25568;37.410;-122.096;2024-02-04T09:20:20;18.20;92.60
33508;DHT22;25568;37.410;-122.096;2024-02-04T09:22:49;18.20;92.60
33508;DHT22;25568;37.410;-122.096;2024-02-04T09:25:20;18.20;92.60
33508;DHT22;25568;37.410;-122.096;2024-02-04T09:27:51;18.20;93.00
33508;DHT22;25568;37.410;-122.096;2024-02-04T09:30:21;18.20;92.70
33508;DHT22;25568;37.410;-122.096;2024-02-04T09:32:50;18.20;92.70
33508;DHT22;25568;37.410;-122.096;2024-02-04T09:35:20;18.10;92.70
33508;DHT22;25568;37.410;-122.096;2024-02-04T09:37:49;18.20;92.80
33508;DHT22;25568;37.410;-122.096;2024-02-04T09:40:18;18.10;92.80
33508;DHT22;25568;37.410;-122.096;2024-02-04T09:42:47;18.20;92.90
33508;DHT22;25568;37.410;-122.096;2024-02-04T09:45:20;18.20;92.90
33508;DHT22;25568;37.410;-122.096;2024-02-04T09:47:51;18.20;92.90
33508;DHT22;25568;37.410;-122.096;2024-02-04T09:50:22;18.20;93.00
33508;DHT22;25568;37.410;-122.096;2024-02-04T09:52:51;18.20;93.00
33508;DHT22;25568;37.410;-122.096;2024-02-04T09:55:23;18.20;93.00
33508;DHT22;25568;37.410;-122.096;2024-02-04T09:57:53;18.20;93.10
33508;DHT22;25568;37.410;-122.096;2024-02-04T10:00:28;18.20;93.10
33508;DHT22;25568;37.410;-122.096;2024-02-04T10:02:58;18.20;93.10
33508;DHT22;25568;37.410;-122.096;2024-02-04T10:05:28;18.20;93.20
33508;DHT22;25568;37.410;-122.096;2024-02-04T10:07:58;18.20;93.20
33508;DHT22;25568;37.410;-122.096;2024-02-04T10:10:27;18.20;93.20
33508;DHT22;25568;37.410;-122.096;2024-02-04T10:12:59;18.20;93.20
33508;DHT22;25568;37.410;-122.096;2024-02-04T10:15:36;18.20;93.30
33508;DHT22;25568;37.410;-122.096;2024-02-04T10:18:07;18.20;93.20
33508;DHT22;25568;37.410;-122.096;2024-02-04T10:20:37;18.10;93.20
33508;DHT22;25568;37.410;-122.096;2024-02-04T10:23:06;18.10;93.20
33508;DHT22;25568;37.410;-122.096;2024-02-04T10:25:36;18.10;93.30
33508;DHT22;25568;37.410;-122.096;2024-02-04T10:28:06;18.20;93.30
33508;DHT22;25568;37.410;-122.096;2024-02-04T10:30:40;18.20;93.30
33508;DHT22;25568;37.410;-122.096;2024-02-04T10:33:09;18.20;93.30
33508;DHT22;25568;37.410;-122.096;2024-02-04T10:35:38;18.20;93.40
33508;DHT22;25568;37.410;-122.096;2024-02-04T10:38:07;18.10;93.30
33508;DHT22;25568;37.410;-122.096;2024-02-04T10:40:38;18.10;93.40
33508;DHT22;25568;37.410;-122.096;2024-02-04T10:43:08;18.10;93.40
33508;DHT22;25568;37.410;-122.096;2024-02-04T10:45:42;18.10;93.60
33508;DHT22;25568;37.410;-122.096;2024-02-04T10:48:15;18.20;93.50
33508;DHT22;25568;37.410;-122.096;2024-02-04T10:50:47;18.20;93.60
33508;DHT22;25568;37.410;-122.096;2024-02-04T10:53:16;18.20;93.60
33508;DHT22;25568;37.410;-122.096;2024-02-04T10:55:50;18.20;93.60
33508;DHT22;25568;37.410;-122.096;2024-02-04T10:58:23;18.20;93.60
33508;DHT22;25568;37.410;-122.096;2024-02-04T11:00:56;18.20;93.60
33508;DHT22;25568;37.410;-122.096;2024-02-04T11:03:25;18.20;93.50
33508;DHT22;25568;37.410;-122.096;2024-02-04T11:05:56;18.20;93.50
33508;DHT22;25568;37.410;-122.096;2024-02-04T11:08:25;18.20;93.60
33508;DHT22;25568;37.410;-122.096;2024-02-04T11:10:55;18.20;93.50
33508;DHT22;25568;37.410;-122.096;2024-02-04T11:13:26;18.20;93.50
33508;DHT22;25568;37.410;-122.096;2024-02-04T11:16:02;18.20;93.50
33508;DHT22;25568;37.410;-122.096;2024-02-04T11:18:49;18.20;93.50
33508;DHT22;25568;37.410;-122.096;2024-02-04T11:24:44;18.20;93.50
33508;DHT22;25568;37.410;-122.096;2024-02-04T11:27:17;18.20;93.50
33508;DHT22;25568;37.410;-122.096;2024-02-04T11:29:46;18.20;93.90
33508;DHT22;25568;37.410;-122.096;2024-02-04T11:32:17;18.20;94.00
33508;DHT22;25568;37.410;-122.096;2024-02-04T11:34:50;18.10;93.70
33508;DHT22;25568;37.410;-122.096;2024-02-04T11:37:29;18.20;93.70
33508;DHT22;25568;37.410;-122.096;2024-02-04T11:39:58;18.20;93.70
33508;DHT22;25568;37.410;-122.096;2024-02-04T11:42:32;18.20;93.70
33508;DHT22;25568;37.410;-122.096;2024-02-04T11:45:09;18.20;93.70
33508;DHT22;25568;37.410;-122.096;2024-02-04T11:47:43;18.20;93.70
33508;DHT22;25568;37.410;-122.096;2024-02-04T11:50:13;18.20;93.80
33508;DHT22;25568;37.410;-122.096;2024-02-04T11:53:03;18.20;93.90
33508;DHT22;25568;37.410;-122.096;2024-02-04T11:55:34;18.20;93.90
33508;DHT22;25568;37.410;-122.096;2024-02-04T11:58:06;18.20;94.00
33508;DHT22;25568;37.410;-122.096;2024-02-04T12:00:36;18.20;94.10
33508;DHT22;25568;37.410;-122.096;2024-02-04T12:03:07;18.20;94.00
33508;DHT22;25568;37.410;-122.096;2024-02-04T12:05:39;18.20;94.00
33508;DHT22;25568;37.410;-122.096;2024-02-04T12:08:09;18.20;94.10
33508;DHT22;25568;37.410;-122.096;2024-02-04T12:10:44;18.20;94.10
33508;DHT22;25568;37.410;-122.096;2024-02-04T12:13:18;18.20;94.10
33508;DHT22;25568;37.410;-122.096;2024-02-04T12:15:48;18.20;94.10
33508;DHT22;25568;37.410;-122.096;2024-02-04T12:18:19;18.20;94.10
33508;DHT22;25568;37.410;-122.096;2024-02-04T12:20:48;18.20;94.00
33508;DHT22;25568;37.410;-122.096;2024-02-04T12:23:18;18.20;94.10
33508;DHT22;25568;37.410;-122.096;2024-02-04T12:25:47;18.20;94.10
33508;DHT22;25568;37.410;-122.096;2024-02-04T12:28:17;18.20;94.10
33508;DHT22;25568;37.410;-122.096;2024-02-04T12:30:53;18.20;94.10
33508;DHT22;25568;37.410;-122.096;2024-02-04T12:33:27;18.20;94.10
33508;DHT22;25568;37.410;-122.096;2024-02-04T12:35:56;18.20;94.00
33508;DHT22;25568;37.410;-122.096;2024-02-04T12:38:27;18.20;94.10
33508;DHT22;25568;37.410;-122.096;2024-02-04T12:41:02;18.20;94.00
33508;DHT22;25568;37.410;-122.096;2024-02-04T12:43:32;18.20;94.00
33508;DHT22;25568;37.410;-122.096;2024-02-04T12:46:01;18.20;94.10
33508;DHT22;25568;37.410;-122.096;2024-02-04T12:48:33;18.20;94.10
33508;DHT22;25568;37.410;-122.096;2024-02-04T12:51:03;18.20;94.10
33508;DHT22;25568;37.410;-122.096;2024-02-04T12:53:33;18.20;94.00
33508;DHT22;25568;37.410;-122.096;2024-02-04T12:56:02;18.20;94.00
33508;DHT22;25568;37.410;-122.096;2024-02-04T12:58:31;18.10;94.00
33508;DHT22;25568;37.410;-122.096;2024-02-04T13:01:10;18.20;94.00
33508;DHT22;25568;37.410;-122.096;2024-02-04T13:03:55;18.20;94.00
33508;DHT22;25568;37.410;-122.096;2024-02-04T13:06:25;18.10;94.00
33508;DHT22;25568;37.410;-122.096;2024-02-04T13:08:55;18.20;94.00
33508;DHT22;25568;37.410;-122.096;2024-02-04T13:11:26;18.20;94.00
33508;DHT22;25568;37.410;-122.096;2024-02-04T13:13:55;18.20;94.00
33508;DHT22;25568;37.410;-122.096;2024-02-04T13:16:24;18.20;94.00
33508;DHT22;25568;37.410;-122.096;2024-02-04T13:18:58;18.20;94.00
33508;DHT22;25568;37.410;-122.096;2024-02-04T13:21:27;18.20;94.00
33508;DHT22;25568;37.410;-122.096;2024-02-04T13:23:56;18.20;93.90
33508;DHT22;25568;37.410;-122.096;2024-02-04T13:26:29;18.20;93.90
33508;DHT22;25568;37.410;-122.096;2024-02-04T13:29:06;18.20;93.90
33508;DHT22;25568;37.410;-122.096;2024-02-04T13:31:37;18.20;93.90
33508;DHT22;25568;37.410;-122.096;2024-02-04T13:34:25;18.20;93.90
33508;DHT22;25568;37.410;-122.096;2024-02-04T13:36:58;18.10;93.90
33508;DHT22;25568;37.410;-122.096;2024-02-04T13:39:31;18.10;93.80
33508;DHT22;25568;37.410;-122.096;2024-02-04T13:42:10;18.10;93.80
33508;DHT22;25568;37.410;-122.096;2024-02-04T13:44:58;18.10;93.80
33508;DHT22;25568;37.410;-122.096;2024-02-04T13:47:39;18.10;93.90
33508;DHT22;25568;37.410;-122.096;2024-02-04T13:50:21;18.10;93.90
33508;DHT22;25568;37.410;-122.096;2024-02-04T13:52:54;18.10;93.90
33508;DHT22;25568;37.410;-122.096;2024-02-04T13:55:24;18.10;93.90
33508;DHT22;25568;37.410;-122.096;2024-02-04T13:57:56;18.10;93.90
33508;DHT22;25568;37.410;-122.096;2024-02-04T14:00:28;18.10;93.90
33508;DHT22;25568;37.410;-122.096;2024-02-04T14:03:01;18.10;93.90
33508;DHT22;25568;37.410;-122.096;2024-02-04T14:05:34;18.10;93.90
33508;DHT22;25568;37.410;-122.096;2024-02-04T14:08:15;18.10;93.90
33508;DHT22;25568;37.410;-122.096;2024-02-04T14:10:48;18.10;93.90
33508;DHT22;25568;37.410;-122.096;2024-02-04T14:13:24;18.10;93.90
33508;DHT22;25568;37.410;-122.096;2024-02-04T14:16:07;18.10;94.00
33508;DHT22;25568;37.410;-122.096;2024-02-04T14:19:15;18.10;93.90
33508;DHT22;25568;37.410;-122.096;2024-02-04T14:21:48;18.10;93.90
33508;DHT22;25568;37.410;-122.096;2024-02-04T14:24:19;18.10;93.90
33508;DHT22;25568;37.410;-122.096;2024-02-04T14:26:58;18.10;93.90
33508;DHT22;25568;37.410;-122.096;2024-02-04T14:29:36;18.10;93.90
33508;DHT22;25568;37.410;-122.096;2024-02-04T14:32:13;18.10;93.90
33508;DHT22;25568;37.410;-122.096;2024-02-04T14:34:51;18.10;93.90
33508;DHT22;25568;37.410;-122.096;2024-02-04T14:37:36;18.10;93.90
33508;DHT22;25568;37.410;-122.096;2024-02-04T14:40:11;18.10;93.80
33508;DHT22;25568;37.410;-122.096;2024-02-04T14:42:41;18.10;93.90
33508;DHT22;25568;37.410;-122.096;2024-02-04T14:45:19;18.10;93.90
33508;DHT22;25568;37.410;-122.096;2024-02-04T14:47:54;18.10;93.90
33508;DHT22;25568;37.410;-122.096;2024-02-04T14:50:32;18.10;93.80
33508;DHT22;25568;37.410;-122.096;2024-02-04T14:53:02;18.10;93.90
33508;DHT22;25568;37.410;-122.096;2024-02-04T14:55:32;18.10;93.90
33508;DHT22;25568;37.410;-122.096;2024-02-04T14:58:03;18.10;93.90
33508;DHT22;25568;37.410;-122.096;2024-02-04T15:00:32;18.10;93.90
33508;DHT22;25568;37.410;-122.096;2024-02-04T15:03:01;18.10;93.80
33508;DHT22;25568;37.410;-122.096;2024-02-04T15:05:35;18.10;93.80
33508;DHT22;25568;37.410;-122.096;2024-02-04T15:08:06;18.10;93.80
33508;DHT22;25568;37.410;-122.096;2024-02-04T15:10:35;18.10;93.80
33508;DHT22;25568;37.410;-122.096;2024-02-04T15:13:05;18.10;93.80
33508;DHT22;25568;37.410;-122.096;2024-02-04T15:15:35;18.10;93.70
33508;DHT22;25568;37.410;-122.096;2024-02-04T15:18:05;18.10;93.70